NCAR-RAP Real-Time Weather Data

Output produced by METARs form (10 April 2020  06:01 UTC)
found at http://weather.rap.ucar.edu/surface/
 
KCVG 100552Z 29013KT 10SM FEW090 02/M02 A2986 RMK AO2 SLP112 60002 T00221017 10078 20022 53004